createdAt,value
2023-05-11T00:01:27.418Z,12.70
2023-05-11T00:03:56.091Z,12.70
2023-05-11T00:06:23.112Z,12.70
2023-05-11T00:08:50.446Z,12.80
2023-05-11T00:11:18.663Z,12.80
2023-05-11T00:13:45.926Z,12.80
2023-05-11T00:16:13.068Z,12.80
2023-05-11T00:18:40.038Z,12.70
2023-05-11T00:21:07.425Z,12.70
2023-05-11T00:23:34.276Z,12.60
2023-05-11T00:26:01.150Z,12.40
2023-05-11T00:28:27.961Z,12.40
2023-05-11T00:30:58.374Z,12.30
2023-05-11T00:38:11.350Z,12.20
2023-05-11T00:40:38.760Z,12.10
2023-05-11T00:43:05.843Z,12.00
2023-05-11T00:45:33.390Z,12.00
2023-05-11T00:48:00.555Z,12.20
2023-05-11T00:50:28.165Z,12.10
2023-05-11T00:52:56.376Z,12.10
2023-05-11T00:55:23.388Z,12.10
2023-05-11T00:57:50.669Z,12.00
2023-05-11T01:00:17.876Z,11.90
2023-05-11T01:02:45.634Z,11.90
2023-05-11T01:05:12.878Z,11.80
2023-05-11T01:08:05.395Z,11.70
2023-05-11T01:10:53.460Z,11.60
2023-05-11T01:13:27.432Z,11.50
2023-05-11T01:15:56.511Z,11.50
2023-05-11T01:18:30.264Z,11.40
2023-05-11T01:21:00.317Z,11.30
2023-05-11T01:23:33.390Z,11.30
2023-05-11T01:26:28.419Z,11.30
2023-05-11T01:29:34.320Z,11.20
2023-05-11T01:32:10.358Z,11.10
2023-05-11T01:34:39.733Z,11.10
2023-05-11T01:37:12.491Z,11.10
2023-05-11T01:39:49.143Z,11.10
2023-05-11T01:42:20.496Z,11.10
2023-05-11T01:44:51.654Z,11.00
2023-05-11T01:47:20.558Z,11.00
2023-05-11T01:49:48.143Z,11.00
2023-05-11T01:52:15.807Z,11.00
2023-05-11T01:54:44.844Z,11.00
2023-05-11T01:57:13.481Z,11.00
2023-05-11T01:59:41.342Z,11.00
2023-05-11T02:02:09.464Z,11.00
2023-05-11T02:04:38.955Z,10.90
2023-05-11T02:07:11.090Z,10.90
2023-05-11T02:09:38.677Z,10.90
2023-05-11T02:12:06.630Z,10.90
2023-05-11T02:14:36.733Z,10.80
2023-05-11T02:17:06.236Z,10.80
2023-05-11T02:19:37.644Z,10.80
2023-05-11T02:22:05.956Z,10.80
2023-05-11T02:24:38.013Z,10.70
2023-05-11T02:27:05.415Z,10.70
2023-05-11T02:29:32.828Z,10.70
2023-05-11T02:32:12.345Z,10.70
2023-05-11T02:34:42.704Z,10.70
2023-05-11T02:37:24.350Z,10.70
2023-05-11T02:39:59.358Z,10.70
2023-05-11T02:42:28.160Z,10.60
2023-05-11T02:45:03.733Z,10.60
2023-05-11T02:47:39.730Z,10.60
2023-05-11T02:50:09.432Z,10.60
2023-05-11T02:52:43.512Z,10.60
2023-05-11T02:55:12.043Z,10.50
2023-05-11T02:57:39.206Z,10.50
2023-05-11T03:00:06.847Z,10.50
2023-05-11T03:02:34.010Z,10.50
2023-05-11T03:05:01.437Z,10.50
2023-05-11T03:07:28.543Z,10.40
2023-05-11T03:09:55.494Z,10.40
2023-05-11T03:12:22.639Z,10.50
2023-05-11T03:14:51.018Z,10.40
2023-05-11T03:17:21.228Z,10.40
2023-05-11T03:19:48.798Z,10.40
2023-05-11T03:22:16.168Z,10.50
2023-05-11T03:24:43.466Z,10.50
2023-05-11T03:27:12.418Z,10.40
2023-05-11T03:29:43.013Z,10.60
2023-05-11T03:32:10.073Z,10.70
2023-05-11T03:34:37.085Z,10.70
2023-05-11T03:37:07.953Z,10.70
2023-05-11T03:39:36.521Z,10.70
2023-05-11T03:42:05.092Z,10.70
2023-05-11T03:44:34.177Z,10.60
2023-05-11T03:47:03.787Z,10.60
2023-05-11T03:49:31.087Z,10.50
2023-05-11T03:51:58.236Z,10.50
2023-05-11T03:54:26.647Z,10.60
2023-05-11T03:56:53.907Z,10.80
2023-05-11T03:59:21.453Z,10.70
2023-05-11T04:01:53.616Z,10.80
2023-05-11T04:04:28.685Z,10.80
2023-05-11T04:06:55.815Z,10.90
2023-05-11T04:09:26.350Z,11.00
2023-05-11T04:11:53.639Z,11.00
2023-05-11T04:14:23.400Z,11.00
2023-05-11T04:16:54.258Z,11.10
2023-05-11T04:19:22.882Z,11.20
2023-05-11T04:21:49.741Z,11.20
2023-05-11T04:24:16.692Z,11.30
2023-05-11T04:26:43.711Z,11.20
2023-05-11T04:29:10.678Z,11.20
2023-05-11T04:31:38.604Z,11.20
2023-05-11T04:34:09.285Z,11.30
2023-05-11T04:36:36.135Z,11.30
2023-05-11T04:39:04.379Z,11.40
2023-05-11T04:41:34.263Z,11.40
2023-05-11T04:44:01.100Z,11.40
2023-05-11T04:46:28.145Z,11.40
2023-05-11T04:48:55.085Z,11.40
2023-05-11T04:51:22.406Z,11.40
2023-05-11T04:53:51.074Z,11.30
2023-05-11T04:56:20.516Z,11.40
2023-05-11T04:58:47.366Z,11.40
2023-05-11T05:01:14.225Z,11.40
2023-05-11T05:03:41.137Z,11.40
2023-05-11T05:06:08.642Z,11.40
2023-05-11T05:08:39.600Z,11.50
2023-05-11T05:11:06.817Z,11.60
2023-05-11T05:13:33.794Z,11.70
2023-05-11T05:16:00.656Z,11.70
2023-05-11T05:18:27.569Z,11.80
2023-05-11T05:20:54.499Z,11.80
2023-05-11T05:23:22.054Z,11.90
2023-05-11T05:25:50.682Z,12.00
2023-05-11T05:28:17.527Z,12.00
2023-05-11T05:30:44.368Z,12.10
2023-05-11T05:33:12.539Z,12.10
2023-05-11T05:35:43.997Z,12.10
2023-05-11T05:38:10.999Z,12.20
2023-05-11T05:40:39.497Z,12.20
2023-05-11T05:43:09.337Z,12.20
2023-05-11T05:45:36.808Z,12.20
2023-05-11T05:48:06.104Z,12.20
2023-05-11T05:50:33.185Z,12.30
2023-05-11T05:53:00.039Z,12.30
2023-05-11T05:55:27.566Z,12.40
2023-05-11T05:57:54.626Z,12.40
2023-05-11T06:00:22.780Z,12.40
2023-05-11T06:02:51.124Z,12.50
2023-05-11T06:05:18.010Z,12.60
2023-05-11T06:07:51.461Z,12.70
2023-05-11T06:10:25.980Z,12.80
2023-05-11T06:12:52.886Z,12.90
2023-05-11T06:15:19.736Z,13.00
2023-05-11T06:17:46.632Z,12.90
2023-05-11T06:20:15.864Z,13.10
2023-05-11T06:22:43.378Z,13.20
2023-05-11T06:25:10.343Z,13.20
2023-05-11T06:27:37.354Z,13.30
2023-05-11T06:30:04.566Z,13.40
2023-05-11T06:32:38.196Z,13.40
2023-05-11T06:35:05.331Z,13.40
2023-05-11T06:37:32.277Z,13.50
2023-05-11T06:39:59.523Z,13.60
2023-05-11T06:42:28.933Z,13.60
2023-05-11T06:44:56.735Z,13.60
2023-05-11T06:47:23.888Z,13.70
2023-05-11T06:49:50.690Z,13.70
2023-05-11T06:52:17.492Z,13.70
2023-05-11T06:54:47.542Z,13.70
2023-05-11T06:57:14.831Z,13.80
2023-05-11T06:59:42.300Z,13.80
2023-05-11T07:02:09.530Z,13.80
2023-05-11T07:04:37.256Z,13.70
2023-05-11T07:07:11.364Z,13.80
2023-05-11T07:09:39.425Z,13.90
2023-05-11T07:12:07.228Z,14.00
2023-05-11T07:14:34.327Z,14.10
2023-05-11T07:17:01.180Z,14.30
2023-05-11T07:19:28.116Z,14.60
2023-05-11T07:21:55.139Z,14.80
2023-05-11T07:24:26.514Z,14.70
2023-05-11T07:26:53.824Z,14.70
2023-05-11T07:29:21.142Z,14.60
2023-05-11T07:31:48.486Z,14.60
2023-05-11T07:34:20.331Z,14.50
2023-05-11T07:36:48.120Z,14.40
2023-05-11T07:39:24.960Z,14.50
2023-05-11T07:42:19.896Z,14.70
2023-05-11T07:44:47.512Z,14.80
2023-05-11T07:47:14.959Z,14.90
2023-05-11T07:52:44.320Z,15.00
2023-05-11T07:55:39.494Z,15.20
2023-05-11T07:58:06.937Z,15.30
2023-05-11T08:00:36.974Z,15.30
2023-05-11T08:03:13.561Z,15.50
2023-05-11T08:05:56.873Z,15.60
2023-05-11T08:08:25.173Z,15.70
2023-05-11T08:10:52.870Z,15.70
2023-05-11T08:32:26.363Z,15.90
2023-05-11T08:34:53.376Z,16.30
2023-05-11T08:37:20.211Z,16.60
2023-05-11T08:39:48.067Z,16.60
2023-05-11T08:42:16.759Z,16.70
2023-05-11T08:44:44.690Z,16.90
2023-05-11T08:47:22.606Z,17.00
2023-05-11T08:49:52.733Z,16.70
2023-05-11T08:52:19.808Z,16.90
2023-05-11T08:54:47.967Z,16.80
2023-05-11T08:57:15.463Z,16.90
2023-05-11T08:59:46.045Z,17.00
2023-05-11T09:02:20.162Z,17.00
2023-05-11T09:04:48.865Z,17.20
2023-05-11T09:07:25.775Z,17.30
2023-05-11T09:09:53.025Z,17.30
2023-05-11T09:12:20.296Z,17.40
2023-05-11T09:14:47.643Z,17.60
2023-05-11T09:17:19.274Z,17.80
2023-05-11T09:23:27.315Z,17.90
2023-05-11T09:25:54.841Z,17.90
2023-05-11T09:31:06.548Z,18.10
2023-05-11T09:33:33.630Z,18.30
2023-05-11T09:36:00.593Z,18.30
2023-05-11T09:38:27.516Z,18.40
2023-05-11T09:41:03.475Z,18.60
2023-05-11T09:43:31.457Z,18.80
2023-05-11T09:46:06.267Z,18.90
2023-05-11T09:48:35.126Z,19.00
2023-05-11T09:51:06.231Z,19.00
2023-05-11T09:53:46.369Z,18.90
2023-05-11T09:56:16.889Z,19.00
2023-05-11T09:58:51.472Z,19.00
2023-05-11T10:01:29.606Z,18.80
2023-05-11T10:04:08.943Z,18.60
2023-05-11T10:06:53.404Z,18.70
2023-05-11T10:09:24.795Z,18.90
2023-05-11T10:11:53.252Z,19.00
2023-05-11T10:14:20.614Z,19.00
2023-05-11T10:16:48.130Z,19.00
2023-05-11T10:19:16.048Z,18.90
2023-05-11T10:21:43.309Z,19.00
2023-05-11T10:24:11.565Z,19.10
2023-05-11T10:26:38.963Z,19.20
2023-05-11T10:29:08.689Z,19.20
2023-05-11T10:31:38.459Z,19.30
2023-05-11T10:34:06.930Z,19.40
2023-05-11T10:36:34.642Z,19.30
2023-05-11T10:39:01.646Z,19.30
2023-05-11T10:41:54.909Z,19.30
2023-05-11T10:44:59.328Z,19.20
2023-05-11T10:47:41.747Z,19.20
2023-05-11T10:50:59.928Z,19.00
2023-05-11T10:53:38.954Z,19.00
2023-05-11T10:56:25.065Z,19.00
2023-05-11T10:59:27.515Z,19.10
2023-05-11T11:01:58.850Z,19.30
2023-05-11T11:04:27.245Z,19.30
2023-05-11T11:07:09.533Z,19.30
2023-05-11T11:09:56.836Z,19.20
2023-05-11T11:12:27.618Z,19.20
2023-05-11T11:15:02.873Z,19.30
2023-05-11T11:17:35.846Z,19.30
2023-05-11T11:20:07.752Z,19.30
2023-05-11T11:22:34.765Z,19.20
2023-05-11T11:25:07.106Z,19.00
2023-05-11T11:27:49.266Z,19.10
2023-05-11T11:30:20.294Z,19.20
2023-05-11T11:32:56.065Z,19.20
2023-05-11T11:35:46.289Z,19.30
2023-05-11T11:38:14.198Z,19.30
2023-05-11T11:40:52.813Z,19.20
2023-05-11T11:43:22.355Z,19.20
2023-05-11T11:45:56.026Z,19.20
2023-05-11T11:48:30.415Z,19.00
2023-05-11T11:51:07.515Z,18.90
2023-05-11T11:53:55.113Z,18.70
2023-05-11T11:56:21.939Z,18.60
2023-05-11T11:58:48.897Z,18.50
2023-05-11T12:01:27.793Z,18.30
2023-05-11T12:04:36.794Z,18.10
2023-05-11T12:07:08.824Z,17.90
2023-05-11T12:09:40.131Z,17.40
2023-05-11T12:12:08.863Z,16.80
2023-05-11T12:14:36.258Z,16.50
2023-05-11T12:17:13.700Z,16.40
2023-05-11T12:19:43.362Z,16.30
2023-05-11T12:22:14.542Z,16.30
2023-05-11T12:24:41.547Z,16.30
2023-05-11T12:27:08.812Z,16.20
2023-05-11T12:29:37.923Z,16.30
2023-05-11T12:32:11.623Z,16.20
2023-05-11T12:34:38.538Z,16.30
2023-05-11T12:37:09.738Z,16.30
2023-05-11T12:39:38.061Z,16.20
2023-05-11T12:42:05.472Z,16.10
2023-05-11T12:44:33.077Z,16.30
2023-05-11T12:47:00.450Z,16.30
2023-05-11T12:49:28.017Z,16.40
2023-05-11T12:51:55.132Z,16.30
2023-05-11T12:54:48.112Z,16.40
2023-05-11T12:57:29.046Z,16.50
2023-05-11T13:00:10.577Z,16.40
2023-05-11T13:02:58.419Z,16.30
2023-05-11T13:05:26.923Z,16.30
2023-05-11T13:08:10.091Z,16.20
2023-05-11T13:10:37.147Z,16.20
2023-05-11T13:13:03.989Z,16.20
2023-05-11T13:15:31.501Z,16.30
2023-05-11T13:18:02.987Z,16.30
2023-05-11T13:20:34.258Z,16.30
2023-05-11T13:23:10.006Z,16.20
2023-05-11T13:25:51.837Z,16.20
2023-05-11T13:28:21.296Z,16.20
2023-05-11T13:30:50.414Z,16.20
2023-05-11T13:33:20.503Z,16.20
2023-05-11T13:35:47.506Z,16.10
2023-05-11T13:38:14.569Z,16.20
2023-05-11T13:40:41.741Z,16.10
2023-05-11T13:43:08.768Z,16.20
2023-05-11T13:45:44.685Z,16.10
2023-05-11T13:48:11.983Z,16.10
2023-05-11T13:50:39.277Z,16.00
2023-05-11T13:53:14.027Z,16.00
2023-05-11T13:55:42.653Z,16.10
2023-05-11T13:58:11.681Z,16.20
2023-05-11T14:00:43.486Z,16.10
2023-05-11T14:03:13.343Z,16.10
2023-05-11T14:05:41.395Z,16.00
2023-05-11T14:08:08.441Z,16.10
2023-05-11T14:10:36.683Z,16.20
2023-05-11T14:13:06.549Z,16.20
2023-05-11T14:15:34.597Z,16.20
2023-05-11T14:18:04.999Z,16.20
2023-05-11T14:20:32.219Z,16.30
2023-05-11T14:22:59.227Z,16.40
2023-05-11T14:25:27.034Z,16.40
2023-05-11T14:27:55.494Z,16.30
2023-05-11T14:30:23.733Z,16.40
2023-05-11T14:32:52.991Z,16.50
2023-05-11T14:35:21.896Z,16.40
2023-05-11T14:37:49.040Z,16.30
2023-05-11T14:40:16.623Z,16.40
2023-05-11T14:42:43.573Z,16.50
2023-05-11T14:45:11.283Z,16.60
2023-05-11T14:47:38.595Z,16.60
2023-05-11T14:50:06.463Z,16.70
2023-05-11T14:52:33.438Z,16.70
2023-05-11T14:55:00.376Z,16.60
2023-05-11T14:57:27.734Z,16.60
2023-05-11T15:00:00.232Z,16.60
2023-05-11T15:02:28.842Z,16.70
2023-05-11T15:04:56.000Z,16.90
2023-05-11T15:07:23.171Z,16.90
2023-05-11T15:09:50.825Z,16.80
2023-05-11T15:12:17.820Z,16.80
2023-05-11T15:14:44.649Z,16.90
2023-05-11T15:17:11.865Z,17.00
2023-05-11T15:19:38.901Z,16.90
2023-05-11T15:22:06.133Z,16.80
2023-05-11T15:24:34.039Z,16.70
2023-05-11T15:27:01.119Z,16.70
2023-05-11T15:29:28.125Z,16.60
2023-05-11T15:31:55.097Z,16.60
2023-05-11T15:34:22.399Z,16.50
2023-05-11T15:36:49.901Z,16.40
2023-05-11T15:39:20.487Z,16.40
2023-05-11T15:41:47.533Z,16.40
2023-05-11T15:44:14.690Z,16.30
2023-05-11T15:46:41.852Z,16.20
2023-05-11T15:49:09.145Z,16.20
2023-05-11T15:51:36.999Z,16.20
2023-05-11T15:54:04.064Z,16.10
2023-05-11T15:56:30.966Z,16.00
2023-05-11T15:58:57.941Z,15.90
2023-05-11T16:01:25.356Z,15.80
2023-05-11T16:03:52.324Z,15.70
2023-05-11T16:06:19.517Z,15.70
2023-05-11T16:08:46.573Z,15.70
2023-05-11T16:11:13.555Z,15.70
2023-05-11T16:13:40.554Z,15.60
2023-05-11T16:16:07.717Z,15.60
2023-05-11T16:21:04.170Z,15.60
2023-05-11T16:23:31.539Z,15.50
2023-05-11T16:25:58.655Z,15.50
2023-05-11T16:28:25.696Z,15.40
2023-05-11T16:30:52.822Z,15.40
2023-05-11T16:33:20.330Z,15.40
2023-05-11T16:35:47.317Z,15.30
2023-05-11T16:38:21.561Z,15.30
2023-05-11T16:40:49.801Z,15.20
2023-05-11T16:43:17.000Z,15.20
2023-05-11T16:45:44.612Z,15.10
2023-05-11T16:48:11.735Z,14.90
2023-05-11T16:50:38.829Z,14.90
2023-05-11T16:53:06.403Z,14.90
2023-05-11T16:55:33.405Z,14.90
2023-05-11T16:58:01.312Z,14.90
2023-05-11T17:00:28.673Z,14.90
2023-05-11T17:02:56.693Z,14.80
2023-05-11T17:05:24.230Z,14.80
2023-05-11T17:07:51.858Z,14.80
2023-05-11T17:10:19.265Z,14.80
2023-05-11T17:12:46.784Z,14.70
2023-05-11T17:15:14.135Z,14.80
2023-05-11T17:17:41.311Z,14.70
2023-05-11T17:20:10.279Z,14.70
2023-05-11T17:22:38.881Z,14.80
2023-05-11T17:25:06.520Z,14.70
2023-05-11T17:27:35.494Z,14.70
2023-05-11T17:30:02.741Z,14.70
2023-05-11T17:32:30.353Z,14.70
2023-05-11T17:34:57.692Z,14.60
2023-05-11T17:37:31.759Z,14.60
2023-05-11T17:40:00.967Z,14.60
2023-05-11T17:42:28.744Z,14.60
2023-05-11T17:44:56.577Z,14.50
2023-05-11T17:47:23.669Z,14.50
2023-05-11T17:49:50.624Z,14.50
2023-05-11T17:52:17.608Z,14.50
2023-05-11T17:54:44.551Z,14.50
2023-05-11T17:57:11.485Z,14.40
2023-05-11T17:59:38.515Z,14.50
2023-05-11T18:02:05.542Z,14.50
2023-05-11T18:04:32.483Z,14.50
2023-05-11T18:07:00.244Z,14.50
2023-05-11T18:09:27.538Z,14.50
2023-05-11T18:11:54.713Z,14.50
2023-05-11T18:14:21.610Z,14.40
2023-05-11T18:16:50.538Z,14.30
2023-05-11T18:19:18.178Z,14.30
2023-05-11T18:21:45.606Z,14.30
2023-05-11T18:24:14.692Z,14.40
2023-05-11T18:26:42.086Z,14.30
2023-05-11T18:29:08.983Z,14.30
2023-05-11T18:31:36.229Z,14.30
2023-05-11T18:34:04.385Z,14.30
2023-05-11T18:36:31.669Z,14.30
2023-05-11T18:38:58.805Z,14.20
2023-05-11T18:41:26.068Z,14.20
2023-05-11T18:43:54.462Z,14.10
2023-05-11T18:46:21.841Z,14.00
2023-05-11T18:48:52.966Z,14.00
2023-05-11T18:51:22.652Z,13.90
2023-05-11T18:53:49.972Z,13.90
2023-05-11T18:56:17.438Z,13.80
2023-05-11T18:58:45.125Z,13.80
2023-05-11T19:01:12.502Z,13.70
2023-05-11T19:03:39.783Z,13.70
2023-05-11T19:06:07.803Z,13.60
2023-05-11T19:08:35.490Z,13.60
2023-05-11T19:11:07.849Z,13.50
2023-05-11T19:13:35.339Z,13.50
2023-05-11T19:16:03.645Z,13.40
2023-05-11T19:18:32.270Z,13.30
2023-05-11T19:20:59.261Z,13.30
2023-05-11T19:23:26.317Z,13.30
2023-05-11T19:25:53.390Z,13.30
2023-05-11T19:28:20.455Z,13.30
2023-05-11T19:30:47.398Z,13.30
2023-05-11T19:33:14.483Z,13.40
2023-05-11T19:35:41.653Z,13.40
2023-05-11T19:38:08.843Z,13.30
2023-05-11T19:43:06.177Z,13.30
2023-05-11T19:45:34.089Z,13.30
2023-05-11T19:48:01.360Z,13.30
2023-05-11T19:50:28.598Z,13.40
2023-05-11T19:52:55.768Z,13.50
2023-05-11T19:55:23.135Z,13.50
2023-05-11T19:57:50.869Z,13.50
2023-05-11T20:00:18.792Z,13.50
2023-05-11T20:02:47.025Z,13.50
2023-05-11T20:05:14.047Z,13.50
2023-05-11T20:07:41.054Z,13.50
2023-05-11T20:10:08.537Z,13.40
2023-05-11T20:12:37.852Z,13.40
2023-05-11T20:15:09.010Z,13.40
2023-05-11T20:17:36.252Z,13.40
2023-05-11T20:20:03.607Z,13.40
2023-05-11T20:22:31.424Z,13.40
2023-05-11T20:24:58.423Z,13.30
2023-05-11T20:27:25.409Z,13.30
2023-05-11T20:29:52.859Z,13.30
2023-05-11T20:32:19.985Z,13.20
2023-05-11T20:34:47.355Z,13.20
2023-05-11T20:37:14.824Z,13.10
2023-05-11T20:39:41.837Z,13.10
2023-05-11T20:42:09.040Z,13.20
2023-05-11T20:44:36.253Z,13.10
2023-05-11T20:47:04.104Z,13.10
2023-05-11T20:49:38.755Z,13.10
2023-05-11T20:52:07.582Z,13.00
2023-05-11T20:54:35.856Z,13.00
2023-05-11T20:57:08.187Z,13.10
2023-05-11T21:02:05.461Z,13.10
2023-05-11T21:04:32.507Z,13.20
2023-05-11T21:06:59.482Z,13.10
2023-05-11T21:09:26.583Z,13.10
2023-05-11T21:11:53.576Z,13.10
2023-05-11T21:14:20.790Z,13.10
2023-05-11T21:16:48.146Z,13.10
2023-05-11T21:19:18.708Z,13.20
2023-05-11T21:21:47.027Z,13.20
2023-05-11T21:24:14.166Z,13.20
2023-05-11T21:26:41.617Z,13.10
2023-05-11T21:29:12.160Z,13.00
2023-05-11T21:31:39.287Z,13.00
2023-05-11T21:34:06.252Z,13.00
2023-05-11T21:36:33.440Z,13.10
2023-05-11T21:39:00.634Z,13.20
2023-05-11T21:41:27.722Z,13.10
2023-05-11T21:43:54.787Z,13.00
2023-05-11T21:46:22.022Z,12.90
2023-05-11T21:48:49.271Z,12.90
2023-05-11T21:51:16.341Z,12.90
2023-05-11T21:53:43.302Z,12.90
2023-05-11T21:56:10.498Z,12.80
2023-05-11T21:58:38.012Z,12.80
2023-05-11T22:01:05.320Z,12.70
2023-05-11T22:03:32.637Z,12.70
2023-05-11T22:05:59.603Z,12.70
2023-05-11T22:08:26.830Z,12.60
2023-05-11T22:10:54.095Z,12.70
2023-05-11T22:13:22.183Z,12.70
2023-05-11T22:15:49.255Z,12.60
2023-05-11T22:18:16.607Z,12.60
2023-05-11T22:20:43.718Z,12.60
2023-05-11T22:23:10.676Z,12.60
2023-05-11T22:25:37.618Z,12.70
2023-05-11T22:28:05.585Z,12.70
2023-05-11T22:30:32.540Z,12.60
2023-05-11T22:32:59.630Z,12.70
2023-05-11T22:35:26.903Z,12.70
2023-05-11T22:37:54.271Z,12.60
2023-05-11T22:40:21.564Z,12.70
2023-05-11T22:42:48.542Z,12.60
2023-05-11T22:45:16.638Z,12.70
2023-05-11T22:47:43.841Z,12.60
2023-05-11T22:50:12.088Z,12.60
2023-05-11T22:52:39.069Z,12.60
2023-05-11T22:55:06.829Z,12.60
2023-05-11T22:57:33.801Z,12.60
2023-05-11T23:00:00.783Z,12.50
2023-05-11T23:02:29.803Z,12.60
2023-05-11T23:04:56.881Z,12.50
2023-05-11T23:07:24.083Z,12.50
2023-05-11T23:09:53.015Z,12.50
2023-05-11T23:12:20.155Z,12.50
2023-05-11T23:14:47.444Z,12.50
2023-05-11T23:17:14.608Z,12.50
2023-05-11T23:19:41.832Z,12.50
2023-05-11T23:22:08.933Z,12.50
2023-05-11T23:24:36.218Z,12.60
2023-05-11T23:27:03.443Z,12.60
2023-05-11T23:29:30.570Z,12.50
2023-05-11T23:31:57.610Z,12.50
2023-05-11T23:34:24.554Z,12.50
2023-05-11T23:36:51.637Z,12.50
2023-05-11T23:39:18.688Z,12.50
2023-05-11T23:41:45.644Z,12.50
2023-05-11T23:44:12.857Z,12.50
2023-05-11T23:46:40.272Z,12.50
2023-05-11T23:49:08.011Z,12.50
2023-05-11T23:51:35.095Z,12.40
2023-05-11T23:54:02.175Z,12.50
2023-05-11T23:56:29.328Z,12.40
2023-05-11T23:58:56.323Z,12.40
